In Rescue
 
Open Full Screen Window  High Contrast Mode
Wind Gusting 26 knots
22
February 25, 2021 4:14 PM CST
Weather Information
Wind Direction
  180 °
Wind Speed
  22 kt (25 mph)
Wind Gust
  26 kt (30 mph)
Altimeter
29.90 in
Visibility
10 SM
Temperature
01° C
34° F
Dewpoint
-01° C
30° F
Humidity
87%
1hr Rain Fall
00.00 in.
24hr Rain Fall
00.01 in.
Sky Condition
Clear
VFR

METAR KHCO 252214Z AUTO 18022G26KT 10SM CLR 01/M01 A2990 RMK AO2

FAA Disclaimer: The data displayed is for advisory purposes only and is not to be used for flight planning or operations.